sensor_id;sensor_type;location;lat;lon;timestamp;temperature;humidity
29571;DHT22;16814;52.118;11.436;2022-09-28T00:01:27;9.90;99.90
29571;DHT22;16814;52.118;11.436;2022-09-28T00:03:55;9.80;99.90
29571;DHT22;16814;52.118;11.436;2022-09-28T00:06:25;9.90;99.90
29571;DHT22;16814;52.118;11.436;2022-09-28T00:08:51;9.90;99.90
29571;DHT22;16814;52.118;11.436;2022-09-28T00:11:18;9.90;99.90
29571;DHT22;16814;52.118;11.436;2022-09-28T00:13:48;9.90;99.90
29571;DHT22;16814;52.118;11.436;2022-09-28T00:16:18;9.90;99.90
29571;DHT22;16814;52.118;11.436;2022-09-28T00:18:45;9.80;99.90
29571;DHT22;16814;52.118;11.436;2022-09-28T00:21:15;9.70;99.90
29571;DHT22;16814;52.118;11.436;2022-09-28T00:23:42;9.60;99.90
29571;DHT22;16814;52.118;11.436;2022-09-28T00:26:28;9.60;99.90
29571;DHT22;16814;52.118;11.436;2022-09-28T00:28:56;9.70;99.90
29571;DHT22;16814;52.118;11.436;2022-09-28T00:31:26;9.70;99.90
29571;DHT22;16814;52.118;11.436;2022-09-28T00:33:54;9.60;99.90
29571;DHT22;16814;52.118;11.436;2022-09-28T00:36:21;9.60;99.90
29571;DHT22;16814;52.118;11.436;2022-09-28T00:38:47;9.60;99.90
29571;DHT22;16814;52.118;11.436;2022-09-28T00:41:13;9.60;99.90
29571;DHT22;16814;52.118;11.436;2022-09-28T00:43:39;9.60;99.90
29571;DHT22;16814;52.118;11.436;2022-09-28T00:46:14;9.50;99.90
29571;DHT22;16814;52.118;11.436;2022-09-28T00:48:50;9.50;99.90
29571;DHT22;16814;52.118;11.436;2022-09-28T00:51:17;9.50;99.90
29571;DHT22;16814;52.118;11.436;2022-09-28T00:53:43;9.50;99.90
29571;DHT22;16814;52.118;11.436;2022-09-28T00:56:13;9.50;99.90
29571;DHT22;16814;52.118;11.436;2022-09-28T00:58:46;9.60;99.90
29571;DHT22;16814;52.118;11.436;2022-09-28T01:01:14;9.80;99.90
29571;DHT22;16814;52.118;11.436;2022-09-28T01:03:40;9.80;99.90
29571;DHT22;16814;52.118;11.436;2022-09-28T01:06:10;9.80;99.90
29571;DHT22;16814;52.118;11.436;2022-09-28T01:08:38;9.80;99.90
29571;DHT22;16814;52.118;11.436;2022-09-28T01:11:04;9.70;99.90
29571;DHT22;16814;52.118;11.436;2022-09-28T01:13:32;9.50;99.90
29571;DHT22;16814;52.118;11.436;2022-09-28T01:18:34;9.40;99.90
29571;DHT22;16814;52.118;11.436;2022-09-28T01:21:19;9.30;99.90
29571;DHT22;16814;52.118;11.436;2022-09-28T01:23:53;9.40;99.90
29571;DHT22;16814;52.118;11.436;2022-09-28T01:26:44;9.40;99.90
29571;DHT22;16814;52.118;11.436;2022-09-28T01:34:59;9.20;99.90
29571;DHT22;16814;52.118;11.436;2022-09-28T01:38:14;9.20;99.90
29571;DHT22;16814;52.118;11.436;2022-09-28T01:40:22;9.00;99.90
29571;DHT22;16814;52.118;11.436;2022-09-28T01:43:04;8.90;99.90
29571;DHT22;16814;52.118;11.436;2022-09-28T01:45:37;9.00;99.90
29571;DHT22;16814;52.118;11.436;2022-09-28T01:48:06;9.00;99.90
29571;DHT22;16814;52.118;11.436;2022-09-28T01:50:37;8.70;99.90
29571;DHT22;16814;52.118;11.436;2022-09-28T01:53:24;8.60;99.90
29571;DHT22;16814;52.118;11.436;2022-09-28T01:56:00;8.40;99.90
29571;DHT22;16814;52.118;11.436;2022-09-28T01:58:34;8.50;99.90
29571;DHT22;16814;52.118;11.436;2022-09-28T02:01:08;8.50;99.90
29571;DHT22;16814;52.118;11.436;2022-09-28T02:03:55;8.60;99.90
29571;DHT22;16814;52.118;11.436;2022-09-28T02:06:26;8.60;99.90
29571;DHT22;16814;52.118;11.436;2022-09-28T02:08:59;8.60;99.90
29571;DHT22;16814;52.118;11.436;2022-09-28T02:11:26;8.50;99.90
29571;DHT22;16814;52.118;11.436;2022-09-28T02:14:04;8.60;99.90
29571;DHT22;16814;52.118;11.436;2022-09-28T02:16:40;8.50;99.90
29571;DHT22;16814;52.118;11.436;2022-09-28T02:26:55;8.40;99.90
29571;DHT22;16814;52.118;11.436;2022-09-28T02:29:22;8.10;99.90
29571;DHT22;16814;52.118;11.436;2022-09-28T02:31:49;7.90;99.90
29571;DHT22;16814;52.118;11.436;2022-09-28T02:34:15;7.70;99.90
29571;DHT22;16814;52.118;11.436;2022-09-28T02:36:41;7.70;99.90
29571;DHT22;16814;52.118;11.436;2022-09-28T02:39:15;7.60;99.90
29571;DHT22;16814;52.118;11.436;2022-09-28T02:42:24;7.70;99.90
29571;DHT22;16814;52.118;11.436;2022-09-28T02:45:03;7.80;99.90
29571;DHT22;16814;52.118;11.436;2022-09-28T02:47:47;7.90;99.90
29571;DHT22;16814;52.118;11.436;2022-09-28T02:50:38;8.00;99.90
29571;DHT22;16814;52.118;11.436;2022-09-28T02:53:24;8.00;99.90
29571;DHT22;16814;52.118;11.436;2022-09-28T02:56:08;8.10;99.90
29571;DHT22;16814;52.118;11.436;2022-09-28T03:01:51;8.10;99.90
29571;DHT22;16814;52.118;11.436;2022-09-28T03:04:38;8.20;99.90
29571;DHT22;16814;52.118;11.436;2022-09-28T03:07:18;8.20;99.90
29571;DHT22;16814;52.118;11.436;2022-09-28T03:12:21;8.10;99.90
29571;DHT22;16814;52.118;11.436;2022-09-28T03:15:03;8.10;99.90
29571;DHT22;16814;52.118;11.436;2022-09-28T03:17:29;8.00;99.90
29571;DHT22;16814;52.118;11.436;2022-09-28T03:19:55;8.20;99.90
29571;DHT22;16814;52.118;11.436;2022-09-28T03:22:20;8.20;99.90
29571;DHT22;16814;52.118;11.436;2022-09-28T03:24:45;8.00;99.90
29571;DHT22;16814;52.118;11.436;2022-09-28T03:27:11;8.00;99.90
29571;DHT22;16814;52.118;11.436;2022-09-28T03:29:36;7.90;99.90
29571;DHT22;16814;52.118;11.436;2022-09-28T03:32:03;7.80;99.90
29571;DHT22;16814;52.118;11.436;2022-09-28T03:34:28;7.80;99.90
29571;DHT22;16814;52.118;11.436;2022-09-28T03:36:54;7.80;99.90
29571;DHT22;16814;52.118;11.436;2022-09-28T03:39:20;7.90;99.90
29571;DHT22;16814;52.118;11.436;2022-09-28T03:41:45;7.80;99.90
29571;DHT22;16814;52.118;11.436;2022-09-28T03:44:11;7.80;99.90
29571;DHT22;16814;52.118;11.436;2022-09-28T03:46:37;7.80;99.90
29571;DHT22;16814;52.118;11.436;2022-09-28T03:49:02;7.70;99.90
29571;DHT22;16814;52.118;11.436;2022-09-28T03:51:28;7.60;99.90
29571;DHT22;16814;52.118;11.436;2022-09-28T03:53:53;7.70;99.90
29571;DHT22;16814;52.118;11.436;2022-09-28T03:56:19;7.60;99.90
29571;DHT22;16814;52.118;11.436;2022-09-28T03:58:45;7.70;99.90
29571;DHT22;16814;52.118;11.436;2022-09-28T04:01:12;7.70;99.90
29571;DHT22;16814;52.118;11.436;2022-09-28T04:03:38;7.70;99.90
29571;DHT22;16814;52.118;11.436;2022-09-28T04:06:03;7.70;99.90
29571;DHT22;16814;52.118;11.436;2022-09-28T04:08:29;7.70;99.90
29571;DHT22;16814;52.118;11.436;2022-09-28T04:10:59;7.70;99.90
29571;DHT22;16814;52.118;11.436;2022-09-28T04:13:26;7.60;99.90
29571;DHT22;16814;52.118;11.436;2022-09-28T04:15:54;7.70;99.90
29571;DHT22;16814;52.118;11.436;2022-09-28T04:18:21;7.70;99.90
29571;DHT22;16814;52.118;11.436;2022-09-28T04:20:47;7.70;99.90
29571;DHT22;16814;52.118;11.436;2022-09-28T04:23:15;7.60;99.90
29571;DHT22;16814;52.118;11.436;2022-09-28T04:25:41;7.80;99.90
29571;DHT22;16814;52.118;11.436;2022-09-28T04:28:12;7.90;99.90
29571;DHT22;16814;52.118;11.436;2022-09-28T04:30:56;7.80;99.90
29571;DHT22;16814;52.118;11.436;2022-09-28T04:33:21;7.90;99.90
29571;DHT22;16814;52.118;11.436;2022-09-28T04:35:47;7.80;99.90
29571;DHT22;16814;52.118;11.436;2022-09-28T04:38:12;7.80;99.90
29571;DHT22;16814;52.118;11.436;2022-09-28T04:40:38;7.80;99.90
29571;DHT22;16814;52.118;11.436;2022-09-28T04:43:03;7.70;99.90
29571;DHT22;16814;52.118;11.436;2022-09-28T04:45:29;7.70;99.90
29571;DHT22;16814;52.118;11.436;2022-09-28T04:47:54;7.80;99.90
29571;DHT22;16814;52.118;11.436;2022-09-28T04:50:20;7.90;99.90
29571;DHT22;16814;52.118;11.436;2022-09-28T04:52:45;7.80;99.90
29571;DHT22;16814;52.118;11.436;2022-09-28T04:55:11;7.90;99.90
29571;DHT22;16814;52.118;11.436;2022-09-28T04:57:40;7.80;99.90
29571;DHT22;16814;52.118;11.436;2022-09-28T05:00:06;7.90;99.90
29571;DHT22;16814;52.118;11.436;2022-09-28T05:02:32;7.90;99.90
29571;DHT22;16814;52.118;11.436;2022-09-28T05:04:58;7.80;99.90
29571;DHT22;16814;52.118;11.436;2022-09-28T05:07:24;7.70;99.90
29571;DHT22;16814;52.118;11.436;2022-09-28T05:09:54;7.70;99.90
29571;DHT22;16814;52.118;11.436;2022-09-28T05:12:20;7.70;99.90
29571;DHT22;16814;52.118;11.436;2022-09-28T05:14:46;7.70;99.90
29571;DHT22;16814;52.118;11.436;2022-09-28T05:17:11;7.60;99.90
29571;DHT22;16814;52.118;11.436;2022-09-28T05:19:37;7.60;99.90
29571;DHT22;16814;52.118;11.436;2022-09-28T05:22:02;7.70;99.90
29571;DHT22;16814;52.118;11.436;2022-09-28T05:24:29;7.70;99.90
29571;DHT22;16814;52.118;11.436;2022-09-28T05:26:55;7.80;99.90
29571;DHT22;16814;52.118;11.436;2022-09-28T05:29:20;7.80;99.90
29571;DHT22;16814;52.118;11.436;2022-09-28T05:31:46;7.80;99.90
29571;DHT22;16814;52.118;11.436;2022-09-28T05:34:11;7.80;99.90
29571;DHT22;16814;52.118;11.436;2022-09-28T05:36:37;7.80;99.90
29571;DHT22;16814;52.118;11.436;2022-09-28T05:39:04;7.80;99.90
29571;DHT22;16814;52.118;11.436;2022-09-28T05:41:30;7.80;99.90
29571;DHT22;16814;52.118;11.436;2022-09-28T05:43:55;7.90;99.90
29571;DHT22;16814;52.118;11.436;2022-09-28T05:46:22;7.90;99.90
29571;DHT22;16814;52.118;11.436;2022-09-28T05:48:48;8.00;99.90
29571;DHT22;16814;52.118;11.436;2022-09-28T05:51:14;7.90;99.90
29571;DHT22;16814;52.118;11.436;2022-09-28T05:53:40;7.90;99.90
29571;DHT22;16814;52.118;11.436;2022-09-28T05:56:06;8.00;99.90
29571;DHT22;16814;52.118;11.436;2022-09-28T05:58:31;8.00;99.90
29571;DHT22;16814;52.118;11.436;2022-09-28T06:00:57;8.00;99.90
29571;DHT22;16814;52.118;11.436;2022-09-28T06:03:23;8.00;99.90
29571;DHT22;16814;52.118;11.436;2022-09-28T06:05:49;8.10;99.90
29571;DHT22;16814;52.118;11.436;2022-09-28T06:08:15;8.10;99.90
29571;DHT22;16814;52.118;11.436;2022-09-28T06:10:40;8.10;99.90
29571;DHT22;16814;52.118;11.436;2022-09-28T06:13:08;8.10;99.90
29571;DHT22;16814;52.118;11.436;2022-09-28T06:15:35;8.10;99.90
29571;DHT22;16814;52.118;11.436;2022-09-28T06:18:06;8.20;99.90
29571;DHT22;16814;52.118;11.436;2022-09-28T06:20:35;8.10;99.90
29571;DHT22;16814;52.118;11.436;2022-09-28T06:23:01;8.10;99.90
29571;DHT22;16814;52.118;11.436;2022-09-28T06:25:27;8.10;99.90
29571;DHT22;16814;52.118;11.436;2022-09-28T06:28:08;8.20;99.90
29571;DHT22;16814;52.118;11.436;2022-09-28T06:30:35;8.20;99.90
29571;DHT22;16814;52.118;11.436;2022-09-28T06:33:05;8.20;99.90
29571;DHT22;16814;52.118;11.436;2022-09-28T06:35:31;8.20;99.90
29571;DHT22;16814;52.118;11.436;2022-09-28T06:37:58;8.20;99.90
29571;DHT22;16814;52.118;11.436;2022-09-28T06:40:24;8.20;99.90
29571;DHT22;16814;52.118;11.436;2022-09-28T06:42:54;8.30;99.90
29571;DHT22;16814;52.118;11.436;2022-09-28T06:45:23;8.30;99.90
29571;DHT22;16814;52.118;11.436;2022-09-28T06:50:21;8.10;99.90
29571;DHT22;16814;52.118;11.436;2022-09-28T06:52:49;8.20;99.90
29571;DHT22;16814;52.118;11.436;2022-09-28T06:55:15;8.30;99.90
29571;DHT22;16814;52.118;11.436;2022-09-28T06:57:40;8.30;99.90
29571;DHT22;16814;52.118;11.436;2022-09-28T07:00:06;8.20;99.90
29571;DHT22;16814;52.118;11.436;2022-09-28T07:02:32;8.20;99.90
29571;DHT22;16814;52.118;11.436;2022-09-28T07:04:58;8.20;99.90
29571;DHT22;16814;52.118;11.436;2022-09-28T07:07:23;8.20;99.90
29571;DHT22;16814;52.118;11.436;2022-09-28T07:09:53;8.20;99.90
29571;DHT22;16814;52.118;11.436;2022-09-28T07:12:20;8.30;99.90
29571;DHT22;16814;52.118;11.436;2022-09-28T07:14:46;8.30;99.90
29571;DHT22;16814;52.118;11.436;2022-09-28T07:17:12;8.30;99.90
29571;DHT22;16814;52.118;11.436;2022-09-28T07:19:38;8.30;99.90
29571;DHT22;16814;52.118;11.436;2022-09-28T07:22:03;8.40;99.90
29571;DHT22;16814;52.118;11.436;2022-09-28T07:24:29;8.40;99.90
29571;DHT22;16814;52.118;11.436;2022-09-28T07:26:55;8.40;99.90
29571;DHT22;16814;52.118;11.436;2022-09-28T07:29:21;8.50;99.90
29571;DHT22;16814;52.118;11.436;2022-09-28T07:31:46;8.40;99.90
29571;DHT22;16814;52.118;11.436;2022-09-28T07:34:13;8.40;99.90
29571;DHT22;16814;52.118;11.436;2022-09-28T07:36:40;8.50;99.90
29571;DHT22;16814;52.118;11.436;2022-09-28T07:39:06;8.60;99.90
29571;DHT22;16814;52.118;11.436;2022-09-28T07:41:32;8.60;99.90
29571;DHT22;16814;52.118;11.436;2022-09-28T07:44:01;8.60;99.90
29571;DHT22;16814;52.118;11.436;2022-09-28T07:46:33;8.50;99.90
29571;DHT22;16814;52.118;11.436;2022-09-28T07:49:00;8.50;99.90
29571;DHT22;16814;52.118;11.436;2022-09-28T07:51:26;8.60;99.90
29571;DHT22;16814;52.118;11.436;2022-09-28T07:53:51;8.70;99.90
29571;DHT22;16814;52.118;11.436;2022-09-28T07:56:19;8.70;99.90
29571;DHT22;16814;52.118;11.436;2022-09-28T07:58:46;8.70;99.90
29571;DHT22;16814;52.118;11.436;2022-09-28T08:01:12;8.70;99.90
29571;DHT22;16814;52.118;11.436;2022-09-28T08:03:40;8.80;99.90
29571;DHT22;16814;52.118;11.436;2022-09-28T08:06:11;8.80;99.90
29571;DHT22;16814;52.118;11.436;2022-09-28T08:08:38;8.80;99.90
29571;DHT22;16814;52.118;11.436;2022-09-28T08:11:10;8.90;99.90
29571;DHT22;16814;52.118;11.436;2022-09-28T08:13:36;8.80;99.90
29571;DHT22;16814;52.118;11.436;2022-09-28T08:16:03;8.80;99.90
29571;DHT22;16814;52.118;11.436;2022-09-28T08:18:29;8.80;99.90
29571;DHT22;16814;52.118;11.436;2022-09-28T08:20:55;8.90;99.90
29571;DHT22;16814;52.118;11.436;2022-09-28T08:23:40;9.00;99.90
29571;DHT22;16814;52.118;11.436;2022-09-28T08:26:06;9.10;99.90
29571;DHT22;16814;52.118;11.436;2022-09-28T08:28:32;9.10;99.90
29571;DHT22;16814;52.118;11.436;2022-09-28T08:31:00;9.10;99.90
29571;DHT22;16814;52.118;11.436;2022-09-28T08:33:26;9.00;99.90
29571;DHT22;16814;52.118;11.436;2022-09-28T08:35:56;9.00;99.90
29571;DHT22;16814;52.118;11.436;2022-09-28T08:38:23;9.20;99.90
29571;DHT22;16814;52.118;11.436;2022-09-28T08:41:02;9.10;99.90
29571;DHT22;16814;52.118;11.436;2022-09-28T08:46:06;9.20;99.90
29571;DHT22;16814;52.118;11.436;2022-09-28T08:48:38;9.10;99.90
29571;DHT22;16814;52.118;11.436;2022-09-28T08:54:02;9.20;99.90
29571;DHT22;16814;52.118;11.436;2022-09-28T08:56:46;9.20;99.90
29571;DHT22;16814;52.118;11.436;2022-09-28T08:59:20;9.30;99.90
29571;DHT22;16814;52.118;11.436;2022-09-28T09:01:50;9.30;99.90
29571;DHT22;16814;52.118;11.436;2022-09-28T09:04:17;9.40;99.90
29571;DHT22;16814;52.118;11.436;2022-09-28T09:12:46;9.20;99.90
29571;DHT22;16814;52.118;11.436;2022-09-28T09:18:07;9.30;99.90
29571;DHT22;16814;52.118;11.436;2022-09-28T09:20:44;9.30;99.90
29571;DHT22;16814;52.118;11.436;2022-09-28T09:23:18;9.40;99.90
29571;DHT22;16814;52.118;11.436;2022-09-28T09:25:54;9.50;99.90
29571;DHT22;16814;52.118;11.436;2022-09-28T09:35:20;9.40;99.90
29571;DHT22;16814;52.118;11.436;2022-09-28T09:40:42;9.30;99.90
29571;DHT22;16814;52.118;11.436;2022-09-28T09:46:10;9.50;99.90
29571;DHT22;16814;52.118;11.436;2022-09-28T09:48:58;9.50;99.90
29571;DHT22;16814;52.118;11.436;2022-09-28T09:51:42;9.60;99.90
29571;DHT22;16814;52.118;11.436;2022-09-28T09:54:22;9.70;99.90
29571;DHT22;16814;52.118;11.436;2022-09-28T09:56:57;9.70;99.90
29571;DHT22;16814;52.118;11.436;2022-09-28T09:59:28;9.80;99.90
29571;DHT22;16814;52.118;11.436;2022-09-28T10:02:01;9.70;99.90
29571;DHT22;16814;52.118;11.436;2022-09-28T10:04:34;9.80;99.90
29571;DHT22;16814;52.118;11.436;2022-09-28T10:07:07;9.80;99.90
29571;DHT22;16814;52.118;11.436;2022-09-28T10:09:38;9.80;99.90
29571;DHT22;16814;52.118;11.436;2022-09-28T10:12:08;9.70;99.90
29571;DHT22;16814;52.118;11.436;2022-09-28T10:14:36;9.80;99.90
29571;DHT22;16814;52.118;11.436;2022-09-28T10:17:02;9.80;99.90
29571;DHT22;16814;52.118;11.436;2022-09-28T10:19:33;10.00;99.90
29571;DHT22;16814;52.118;11.436;2022-09-28T10:22:02;10.10;99.90
29571;DHT22;16814;52.118;11.436;2022-09-28T10:24:39;10.00;99.90
29571;DHT22;16814;52.118;11.436;2022-09-28T10:27:11;10.00;99.90
29571;DHT22;16814;52.118;11.436;2022-09-28T10:29:53;10.10;99.90
29571;DHT22;16814;52.118;11.436;2022-09-28T10:32:25;10.00;99.90
29571;DHT22;16814;52.118;11.436;2022-09-28T10:34:52;10.10;99.90
29571;DHT22;16814;52.118;11.436;2022-09-28T10:37:19;10.10;99.90
29571;DHT22;16814;52.118;11.436;2022-09-28T10:39:54;10.00;99.90
29571;DHT22;16814;52.118;11.436;2022-09-28T10:42:24;10.00;99.90
29571;DHT22;16814;52.118;11.436;2022-09-28T10:44:54;10.20;99.90
29571;DHT22;16814;52.118;11.436;2022-09-28T10:47:26;10.10;99.90
29571;DHT22;16814;52.118;11.436;2022-09-28T10:49:53;10.00;99.90
29571;DHT22;16814;52.118;11.436;2022-09-28T10:52:34;10.00;99.90
29571;DHT22;16814;52.118;11.436;2022-09-28T10:55:02;10.00;99.90
29571;DHT22;16814;52.118;11.436;2022-09-28T10:57:33;10.20;99.90
29571;DHT22;16814;52.118;11.436;2022-09-28T10:59:59;10.00;99.90
29571;DHT22;16814;52.118;11.436;2022-09-28T11:02:31;9.90;99.90
29571;DHT22;16814;52.118;11.436;2022-09-28T11:04:59;10.00;99.90
29571;DHT22;16814;52.118;11.436;2022-09-28T11:07:28;9.90;99.90
29571;DHT22;16814;52.118;11.436;2022-09-28T11:09:55;9.90;99.90
29571;DHT22;16814;52.118;11.436;2022-09-28T11:12:24;9.80;99.90
29571;DHT22;16814;52.118;11.436;2022-09-28T11:15:00;9.70;99.90
29571;DHT22;16814;52.118;11.436;2022-09-28T11:17:29;9.70;99.90
29571;DHT22;16814;52.118;11.436;2022-09-28T11:19:57;9.80;99.90
29571;DHT22;16814;52.118;11.436;2022-09-28T11:25:21;9.90;99.90
29571;DHT22;16814;52.118;11.436;2022-09-28T11:28:01;9.80;99.90
29571;DHT22;16814;52.118;11.436;2022-09-28T11:33:04;9.80;99.90
29571;DHT22;16814;52.118;11.436;2022-09-28T11:35:44;9.70;99.90
29571;DHT22;16814;52.118;11.436;2022-09-28T11:41:31;9.80;99.90
29571;DHT22;16814;52.118;11.436;2022-09-28T11:44:18;9.80;99.90
29571;DHT22;16814;52.118;11.436;2022-09-28T11:47:17;9.80;99.90
29571;DHT22;16814;52.118;11.436;2022-09-28T11:52:28;9.70;99.90
29571;DHT22;16814;52.118;11.436;2022-09-28T11:55:02;9.70;99.90
29571;DHT22;16814;52.118;11.436;2022-09-28T11:57:34;9.80;99.90
29571;DHT22;16814;52.118;11.436;2022-09-28T12:00:06;9.80;99.90
29571;DHT22;16814;52.118;11.436;2022-09-28T12:05:21;10.00;99.90
29571;DHT22;16814;52.118;11.436;2022-09-28T12:08:15;9.80;99.90
29571;DHT22;16814;52.118;11.436;2022-09-28T12:10:53;9.90;99.90
29571;DHT22;16814;52.118;11.436;2022-09-28T12:13:33;9.80;99.90
29571;DHT22;16814;52.118;11.436;2022-09-28T12:16:20;9.80;99.90
29571;DHT22;16814;52.118;11.436;2022-09-28T12:18:56;10.00;99.90
29571;DHT22;16814;52.118;11.436;2022-09-28T12:23:53;10.50;99.90
29571;DHT22;16814;52.118;11.436;2022-09-28T12:29:25;10.60;99.90
29571;DHT22;16814;52.118;11.436;2022-09-28T12:32:08;10.60;99.90
29571;DHT22;16814;52.118;11.436;2022-09-28T12:34:36;10.70;99.90
29571;DHT22;16814;52.118;11.436;2022-09-28T12:45:48;11.00;99.90
29571;DHT22;16814;52.118;11.436;2022-09-28T12:51:50;11.10;99.90
29571;DHT22;16814;52.118;11.436;2022-09-28T12:54:33;11.10;99.90
29571;DHT22;16814;52.118;11.436;2022-09-28T13:00:21;11.20;99.90
29571;DHT22;16814;52.118;11.436;2022-09-28T13:08:16;11.20;99.90
29571;DHT22;16814;52.118;11.436;2022-09-28T13:11:03;11.20;99.90
29571;DHT22;16814;52.118;11.436;2022-09-28T13:16:23;11.20;99.90
29571;DHT22;16814;52.118;11.436;2022-09-28T13:21:29;11.20;99.90
29571;DHT22;16814;52.118;11.436;2022-09-28T13:23:58;11.30;99.90
29571;DHT22;16814;52.118;11.436;2022-09-28T13:26:32;11.30;99.90
29571;DHT22;16814;52.118;11.436;2022-09-28T13:29:08;11.30;99.90
29571;DHT22;16814;52.118;11.436;2022-09-28T13:31:41;11.30;99.90
29571;DHT22;16814;52.118;11.436;2022-09-28T13:34:13;11.40;99.90
29571;DHT22;16814;52.118;11.436;2022-09-28T13:36:45;11.50;99.90
29571;DHT22;16814;52.118;11.436;2022-09-28T13:39:37;11.60;99.90
29571;DHT22;16814;52.118;11.436;2022-09-28T13:50:35;11.60;99.90
29571;DHT22;16814;52.118;11.436;2022-09-28T13:56:43;11.50;99.90
29571;DHT22;16814;52.118;11.436;2022-09-28T13:59:29;11.40;99.90
29571;DHT22;16814;52.118;11.436;2022-09-28T14:02:12;11.30;99.90
29571;DHT22;16814;52.118;11.436;2022-09-28T14:04:56;11.20;99.90
29571;DHT22;16814;52.118;11.436;2022-09-28T14:10:19;11.10;99.90
29571;DHT22;16814;52.118;11.436;2022-09-28T14:12:49;11.00;99.90
29571;DHT22;16814;52.118;11.436;2022-09-28T14:23:46;11.00;99.90
29571;DHT22;16814;52.118;11.436;2022-09-28T14:29:25;11.00;99.90
29571;DHT22;16814;52.118;11.436;2022-09-28T14:32:46;11.00;99.90
29571;DHT22;16814;52.118;11.436;2022-09-28T14:34:47;11.20;99.90
29571;DHT22;16814;52.118;11.436;2022-09-28T14:37:31;11.20;99.90
29571;DHT22;16814;52.118;11.436;2022-09-28T14:40:55;11.30;99.90
29571;DHT22;16814;52.118;11.436;2022-09-28T14:43:57;11.20;99.90
29571;DHT22;16814;52.118;11.436;2022-09-28T14:48:50;11.40;99.90
29571;DHT22;16814;52.118;11.436;2022-09-28T14:53:58;11.30;99.90
29571;DHT22;16814;52.118;11.436;2022-09-28T14:56:27;11.30;99.90
29571;DHT22;16814;52.118;11.436;2022-09-28T14:58:56;11.30;99.90
29571;DHT22;16814;52.118;11.436;2022-09-28T15:01:22;11.30;99.90
29571;DHT22;16814;52.118;11.436;2022-09-28T15:03:54;11.20;99.90
29571;DHT22;16814;52.118;11.436;2022-09-28T15:06:24;11.10;99.90
29571;DHT22;16814;52.118;11.436;2022-09-28T15:08:52;11.40;99.90
29571;DHT22;16814;52.118;11.436;2022-09-28T15:11:21;11.30;99.90
29571;DHT22;16814;52.118;11.436;2022-09-28T15:13:48;11.30;99.90
29571;DHT22;16814;52.118;11.436;2022-09-28T15:16:16;11.20;99.90
29571;DHT22;16814;52.118;11.436;2022-09-28T15:21:22;11.10;99.90
29571;DHT22;16814;52.118;11.436;2022-09-28T15:23:48;11.20;99.90
29571;DHT22;16814;52.118;11.436;2022-09-28T15:26:28;11.20;99.90
29571;DHT22;16814;52.118;11.436;2022-09-28T15:28:57;11.00;99.90
29571;DHT22;16814;52.118;11.436;2022-09-28T15:31:24;11.00;99.90
29571;DHT22;16814;52.118;11.436;2022-09-28T15:33:55;11.30;99.90
29571;DHT22;16814;52.118;11.436;2022-09-28T15:36:41;11.30;99.90
29571;DHT22;16814;52.118;11.436;2022-09-28T15:39:14;11.20;99.90
29571;DHT22;16814;52.118;11.436;2022-09-28T15:41:45;11.00;99.90
29571;DHT22;16814;52.118;11.436;2022-09-28T15:44:35;11.00;99.90
29571;DHT22;16814;52.118;11.436;2022-09-28T15:47:15;11.30;99.90
29571;DHT22;16814;52.118;11.436;2022-09-28T15:52:29;11.30;99.90
29571;DHT22;16814;52.118;11.436;2022-09-28T15:54:58;11.30;99.90
29571;DHT22;16814;52.118;11.436;2022-09-28T15:57:37;11.20;99.90
29571;DHT22;16814;52.118;11.436;2022-09-28T16:00:15;11.00;99.90
29571;DHT22;16814;52.118;11.436;2022-09-28T16:06:04;11.00;99.90
29571;DHT22;16814;52.118;11.436;2022-09-28T16:08:40;10.90;99.90
29571;DHT22;16814;52.118;11.436;2022-09-28T16:11:26;10.90;99.90
29571;DHT22;16814;52.118;11.436;2022-09-28T16:14:25;10.80;99.90
29571;DHT22;16814;52.118;11.436;2022-09-28T16:16:52;10.70;99.90
29571;DHT22;16814;52.118;11.436;2022-09-28T16:19:30;10.80;99.90
29571;DHT22;16814;52.118;11.436;2022-09-28T16:22:03;10.70;99.90
29571;DHT22;16814;52.118;11.436;2022-09-28T16:24:34;10.70;99.90
29571;DHT22;16814;52.118;11.436;2022-09-28T16:27:26;10.70;99.90
29571;DHT22;16814;52.118;11.436;2022-09-28T16:32:50;10.50;99.90
29571;DHT22;16814;52.118;11.436;2022-09-28T16:35:20;10.50;99.90
29571;DHT22;16814;52.118;11.436;2022-09-28T16:40:41;10.50;99.90
29571;DHT22;16814;52.118;11.436;2022-09-28T16:43:08;10.50;99.90
29571;DHT22;16814;52.118;11.436;2022-09-28T16:45:40;10.50;99.90
29571;DHT22;16814;52.118;11.436;2022-09-28T16:48:05;10.50;99.90
29571;DHT22;16814;52.118;11.436;2022-09-28T16:50:31;10.50;99.90
29571;DHT22;16814;52.118;11.436;2022-09-28T16:53:09;10.30;99.90
29571;DHT22;16814;52.118;11.436;2022-09-28T16:55:55;10.30;99.90
29571;DHT22;16814;52.118;11.436;2022-09-28T16:58:22;10.20;99.90
29571;DHT22;16814;52.118;11.436;2022-09-28T17:00:48;10.20;99.90
29571;DHT22;16814;52.118;11.436;2022-09-28T17:03:15;10.30;99.90
29571;DHT22;16814;52.118;11.436;2022-09-28T17:05:42;10.20;99.90
29571;DHT22;16814;52.118;11.436;2022-09-28T17:08:12;10.10;99.90
29571;DHT22;16814;52.118;11.436;2022-09-28T17:11:00;10.00;99.90
29571;DHT22;16814;52.118;11.436;2022-09-28T17:13:32;9.90;99.90
29571;DHT22;16814;52.118;11.436;2022-09-28T17:16:13;9.80;99.90
29571;DHT22;16814;52.118;11.436;2022-09-28T17:18:38;9.70;99.90
29571;DHT22;16814;52.118;11.436;2022-09-28T17:21:08;9.80;99.90
29571;DHT22;16814;52.118;11.436;2022-09-28T17:23:33;9.80;99.90
29571;DHT22;16814;52.118;11.436;2022-09-28T17:26:00;9.70;99.90
29571;DHT22;16814;52.118;11.436;2022-09-28T17:28:29;9.60;99.90
29571;DHT22;16814;52.118;11.436;2022-09-28T17:30:55;9.50;99.90
29571;DHT22;16814;52.118;11.436;2022-09-28T17:33:21;9.40;99.90
29571;DHT22;16814;52.118;11.436;2022-09-28T17:35:47;9.30;99.90
29571;DHT22;16814;52.118;11.436;2022-09-28T17:38:14;9.20;99.90
29571;DHT22;16814;52.118;11.436;2022-09-28T17:40:41;9.20;99.90
29571;DHT22;16814;52.118;11.436;2022-09-28T17:43:07;9.10;99.90
29571;DHT22;16814;52.118;11.436;2022-09-28T17:45:34;9.20;99.90
29571;DHT22;16814;52.118;11.436;2022-09-28T17:48:12;9.30;99.90
29571;DHT22;16814;52.118;11.436;2022-09-28T17:50:40;9.30;99.90
29571;DHT22;16814;52.118;11.436;2022-09-28T17:53:07;9.30;99.90
29571;DHT22;16814;52.118;11.436;2022-09-28T17:55:34;9.30;99.90
29571;DHT22;16814;52.118;11.436;2022-09-28T17:58:17;9.20;99.90
29571;DHT22;16814;52.118;11.436;2022-09-28T18:00:47;9.20;99.90
29571;DHT22;16814;52.118;11.436;2022-09-28T18:03:21;9.10;99.90
29571;DHT22;16814;52.118;11.436;2022-09-28T18:05:48;9.10;99.90
29571;DHT22;16814;52.118;11.436;2022-09-28T18:08:17;9.10;99.90
29571;DHT22;16814;52.118;11.436;2022-09-28T18:10:43;9.10;99.90
29571;DHT22;16814;52.118;11.436;2022-09-28T18:13:09;9.10;99.90
29571;DHT22;16814;52.118;11.436;2022-09-28T18:15:35;9.10;99.90